createdAt,value
2018-09-05T00:00:11.729Z,101992.59
2018-09-05T00:02:41.118Z,101997.07
2018-09-05T00:05:10.632Z,101994.45
2018-09-05T00:07:39.932Z,101997.19
2018-09-05T00:10:09.173Z,102002.92
2018-09-05T00:12:38.192Z,101997.19
2018-09-05T00:15:07.882Z,101994.48
2018-09-05T00:17:37.279Z,101991.74
2018-09-05T00:20:06.661Z,101993.55
2018-09-05T00:22:35.816Z,101997.11
2018-09-05T00:25:05.151Z,101991.30
2018-09-05T00:27:34.351Z,101990.85
2018-09-05T00:30:03.885Z,101904.16
2018-09-05T00:32:33.140Z,101989.92
2018-09-05T00:35:02.511Z,101985.97
2018-09-05T00:37:31.624Z,101990.85
2018-09-05T00:40:00.806Z,101989.92
2018-09-05T00:42:30.051Z,101988.55
2018-09-05T00:44:59.273Z,101990.77
2018-09-05T00:47:28.494Z,101983.61
2018-09-05T00:50:00.607Z,101989.42
2018-09-05T00:52:30.561Z,101988.58
2018-09-05T00:54:59.728Z,101992.59
2018-09-05T00:57:28.953Z,101990.41
2018-09-05T00:59:58.102Z,101999.73
2018-09-05T01:02:27.500Z,101992.71
2018-09-05T01:04:57.272Z,101998.45
2018-09-05T01:07:27.764Z,101989.97
2018-09-05T01:09:56.940Z,101997.07
2018-09-05T01:12:26.641Z,101990.41
2018-09-05T01:14:56.149Z,101998.84
2018-09-05T01:17:25.493Z,101992.14
2018-09-05T01:19:54.728Z,101997.91
2018-09-05T01:22:23.953Z,101999.20
2018-09-05T01:24:52.971Z,101993.38
2018-09-05T01:27:22.257Z,102001.02
2018-09-05T01:29:51.583Z,101996.14
2018-09-05T01:32:20.733Z,101997.11
2018-09-05T01:34:50.197Z,101998.03
2018-09-05T01:37:19.540Z,101993.19
2018-09-05T01:39:48.620Z,101990.13
2018-09-05T01:42:17.905Z,101996.42
2018-09-05T01:44:47.114Z,101994.23
2018-09-05T01:47:16.461Z,101995.58
2018-09-05T01:49:45.763Z,101989.77
2018-09-05T01:52:15.083Z,102004.34
2018-09-05T01:54:44.371Z,101997.31
2018-09-05T01:57:13.561Z,101994.80
2018-09-05T01:59:42.885Z,101998.02
2018-09-05T02:02:12.263Z,101994.06
2018-09-05T02:04:41.400Z,101994.14
2018-09-05T02:07:10.962Z,101992.36
2018-09-05T02:09:40.148Z,101994.06
2018-09-05T02:12:09.499Z,101996.66
2018-09-05T02:14:38.698Z,101991.25
2018-09-05T02:17:07.855Z,101986.77
2018-09-05T02:19:37.127Z,101991.58
2018-09-05T02:22:06.407Z,101986.17
2018-09-05T02:24:35.633Z,101988.39
2018-09-05T02:27:05.235Z,101985.80
2018-09-05T02:29:34.721Z,101986.70
2018-09-05T02:32:04.203Z,101983.10
2018-09-05T02:34:33.344Z,101978.70
2018-09-05T02:37:02.551Z,101982.41
2018-09-05T02:39:31.816Z,101978.94
2018-09-05T02:42:00.949Z,101986.93
2018-09-05T02:44:30.197Z,101975.39
2018-09-05T02:46:59.587Z,101977.23
2018-09-05T02:49:28.770Z,101977.20
2018-09-05T02:51:57.992Z,101976.76
2018-09-05T02:54:27.227Z,101978.98
2018-09-05T02:56:56.332Z,101984.34
2018-09-05T02:59:25.619Z,101981.67
2018-09-05T03:01:54.745Z,101988.33
2018-09-05T03:04:24.018Z,101988.81
2018-09-05T03:06:53.326Z,101986.16
2018-09-05T03:09:22.773Z,101988.70
2018-09-05T03:11:51.799Z,101994.91
2018-09-05T03:14:20.992Z,101985.19
2018-09-05T03:16:50.195Z,101991.81
2018-09-05T03:19:19.395Z,101990.00
2018-09-05T03:21:48.818Z,101986.48
2018-09-05T03:24:18.348Z,101989.59
2018-09-05T03:26:47.491Z,101994.92
2018-09-05T03:29:16.812Z,101992.73
2018-09-05T03:31:45.922Z,101989.70
2018-09-05T03:34:15.453Z,101990.59
2018-09-05T03:36:44.650Z,101990.19
2018-09-05T03:39:13.964Z,101990.19
2018-09-05T03:41:42.907Z,101990.19
2018-09-05T03:44:12.207Z,101989.37
2018-09-05T03:46:41.374Z,101884.24
2018-09-05T03:49:10.528Z,101989.03
2018-09-05T03:51:39.712Z,101994.39
2018-09-05T03:54:09.389Z,101992.21
2018-09-05T03:56:38.480Z,102000.60
2018-09-05T03:59:07.858Z,101997.56
2018-09-05T04:01:36.987Z,101997.56
2018-09-05T04:04:06.352Z,101995.38
2018-09-05T04:06:35.307Z,102000.27
2018-09-05T04:09:06.409Z,102001.62
2018-09-05T04:11:36.423Z,102002.07
2018-09-05T04:14:05.802Z,102005.21
2018-09-05T04:19:28.867Z,102007.43
2018-09-05T04:21:58.016Z,102006.06
2018-09-05T04:24:27.363Z,102009.14
2018-09-05T04:26:56.468Z,102009.03
2018-09-05T04:29:25.654Z,102004.05
2018-09-05T04:31:54.953Z,101996.98
2018-09-05T04:34:24.236Z,102008.52
2018-09-05T04:36:53.455Z,102008.52
2018-09-05T04:39:24.014Z,102009.34
2018-09-05T04:41:53.337Z,102006.64
2018-09-05T04:44:22.216Z,102008.38
2018-09-05T04:46:51.159Z,102010.56
2018-09-05T04:49:20.373Z,102015.85
2018-09-05T04:51:54.859Z,102012.67
2018-09-05T04:54:23.837Z,101608.05
2018-09-05T04:56:53.236Z,102019.63
2018-09-05T04:59:23.428Z,102022.33
2018-09-05T05:01:52.376Z,101918.55
2018-09-05T05:04:22.499Z,102029.47
2018-09-05T05:06:52.883Z,102030.80
2018-09-05T05:09:22.402Z,102032.09
2018-09-05T05:11:53.503Z,102030.84
2018-09-05T05:14:22.640Z,102035.27
2018-09-05T05:16:52.341Z,102034.83
2018-09-05T05:19:21.532Z,102033.94
2018-09-05T05:21:50.949Z,102037.50
2018-09-05T05:24:19.798Z,102035.68
2018-09-05T05:26:48.674Z,102040.12
2018-09-05T05:29:17.878Z,102047.19
2018-09-05T05:31:47.152Z,102044.08
2018-09-05T05:34:17.202Z,102045.38
2018-09-05T05:36:46.539Z,102047.03
2018-09-05T05:39:15.464Z,102053.25
2018-09-05T05:41:44.455Z,102054.11
2018-09-05T05:44:13.518Z,102057.66
2018-09-05T05:46:42.560Z,102055.92
2018-09-05T05:49:11.603Z,102059.50
2018-09-05T05:51:40.685Z,102062.09
2018-09-05T05:54:09.691Z,102059.88
2018-09-05T05:56:38.807Z,102055.00
2018-09-05T05:59:07.671Z,102058.62
2018-09-05T06:01:36.528Z,102059.06
2018-09-05T06:04:05.513Z,102063.50
2018-09-05T06:06:34.460Z,102062.17
2018-09-05T06:09:03.507Z,102064.88
2018-09-05T06:11:32.444Z,102062.17
2018-09-05T06:14:01.827Z,102062.20
2018-09-05T06:16:30.685Z,102062.69
2018-09-05T06:18:59.860Z,102070.64
2018-09-05T06:21:29.081Z,102068.39
2018-09-05T06:23:58.639Z,102070.05
2018-09-05T06:26:27.597Z,102075.79
2018-09-05T06:28:56.697Z,102069.12
2018-09-05T06:31:25.898Z,102077.97
2018-09-05T06:33:55.006Z,102074.50
2018-09-05T06:36:24.409Z,102073.61
2018-09-05T06:38:53.343Z,102077.13
2018-09-05T06:41:22.985Z,102085.97
2018-09-05T06:43:52.156Z,102077.05
2018-09-05T06:46:21.417Z,102081.89
2018-09-05T06:48:50.389Z,102078.83
2018-09-05T06:51:19.660Z,102072.68
2018-09-05T06:53:48.921Z,102071.31
2018-09-05T06:56:18.313Z,102074.02
2018-09-05T06:58:47.700Z,102074.83
2018-09-05T07:01:16.901Z,102075.23
2018-09-05T07:03:46.317Z,102078.83
2018-09-05T07:06:15.548Z,102076.12
2018-09-05T07:08:44.863Z,102076.53
2018-09-05T07:11:13.947Z,102075.64
2018-09-05T07:13:43.089Z,102074.30
2018-09-05T07:16:13.478Z,102078.38
2018-09-05T07:18:42.441Z,102076.53
2018-09-05T07:21:11.452Z,102078.78
2018-09-05T07:23:40.347Z,102076.97
2018-09-05T07:26:09.643Z,102079.62
2018-09-05T07:28:38.949Z,102078.22
2018-09-05T07:31:08.314Z,102080.44
2018-09-05T07:33:37.654Z,102077.66
2018-09-05T07:36:06.982Z,102082.91
2018-09-05T07:38:36.246Z,102080.66
2018-09-05T07:41:06.415Z,102079.84
2018-09-05T07:43:35.441Z,102074.52
2018-09-05T07:46:04.757Z,102073.54
2018-09-05T07:48:34.176Z,102078.39
2018-09-05T07:51:03.372Z,102079.12
2018-09-05T07:53:32.583Z,102078.67
2018-09-05T07:56:01.767Z,102078.94
2018-09-05T07:58:31.027Z,102092.59
2018-09-05T08:01:00.272Z,102085.39
2018-09-05T08:03:29.735Z,102090.73
2018-09-05T08:05:59.058Z,102085.39
2018-09-05T08:08:27.992Z,102090.12
2018-09-05T08:10:57.343Z,102073.75
2018-09-05T08:13:26.663Z,102090.92
2018-09-05T08:15:55.757Z,102087.53
2018-09-05T08:18:25.261Z,102092.33
2018-09-05T08:20:54.710Z,102089.48
2018-09-05T08:23:23.890Z,102090.77
2018-09-05T08:25:53.202Z,102093.80
2018-09-05T08:28:22.377Z,102088.41
2018-09-05T08:30:51.629Z,102090.98
2018-09-05T08:33:21.639Z,102092.31
2018-09-05T08:35:51.224Z,102090.53
2018-09-05T08:38:20.442Z,102086.77
2018-09-05T08:40:50.838Z,102089.30
2018-09-05T08:43:20.407Z,102092.86
2018-09-05T08:45:49.644Z,102090.09
2018-09-05T08:48:18.993Z,102089.84
2018-09-05T08:50:48.355Z,102088.69
2018-09-05T08:53:17.596Z,102085.92
2018-09-05T08:55:46.959Z,102083.30
2018-09-05T08:58:16.197Z,102080.64
2018-09-05T09:00:45.447Z,102078.94
2018-09-05T09:03:14.365Z,102076.03
2018-09-05T09:05:43.230Z,102078.23
2018-09-05T09:08:12.560Z,102079.48
2018-09-05T09:10:41.639Z,102078.20
2018-09-05T09:13:10.851Z,102071.72
2018-09-05T09:15:39.783Z,102078.30
2018-09-05T09:18:09.151Z,102073.52
2018-09-05T09:20:38.990Z,102075.62
2018-09-05T09:23:08.595Z,102076.33
2018-09-05T09:25:37.783Z,102084.05
2018-09-05T09:28:06.988Z,102076.16
2018-09-05T09:30:35.916Z,102073.25
2018-09-05T09:33:05.282Z,102068.02
2018-09-05T09:35:34.485Z,102073.55
2018-09-05T09:38:03.950Z,102069.16
2018-09-05T09:40:33.404Z,102069.67
2018-09-05T09:43:02.417Z,102069.22
2018-09-05T09:45:31.791Z,102071.44
2018-09-05T09:48:00.916Z,102066.73
2018-09-05T09:50:30.333Z,102066.68
2018-09-05T09:52:59.623Z,102066.68
2018-09-05T09:55:29.109Z,102064.84
2018-09-05T09:57:58.793Z,102065.78
2018-09-05T10:00:33.168Z,102067.33
2018-09-05T10:03:07.761Z,102065.41
2018-09-05T10:05:42.010Z,102059.02
2018-09-05T10:08:17.274Z,102056.48
2018-09-05T10:11:24.919Z,102057.55
2018-09-05T10:13:59.224Z,102052.58
2018-09-05T10:16:33.400Z,102055.16
2018-09-05T10:19:06.642Z,102051.46
2018-09-05T10:24:28.549Z,102054.20
2018-09-05T10:26:57.835Z,102056.78
2018-09-05T10:29:27.444Z,102049.52
2018-09-05T10:31:56.794Z,102049.37
2018-09-05T10:34:26.060Z,102048.94
2018-09-05T10:36:55.277Z,102048.11
2018-09-05T10:39:24.798Z,102049.02
2018-09-05T10:41:54.124Z,102051.77
2018-09-05T10:44:23.296Z,102052.33
2018-09-05T10:46:52.854Z,102055.97
2018-09-05T10:49:22.110Z,102054.13
2018-09-05T10:51:56.309Z,102054.88
2018-09-05T10:54:25.864Z,102052.05
2018-09-05T10:56:55.194Z,102048.38
2018-09-05T10:59:24.753Z,102045.59
2018-09-05T11:01:54.517Z,102043.39
2018-09-05T11:04:24.873Z,102038.72
2018-09-05T11:06:54.560Z,102043.77
2018-09-05T11:09:24.130Z,102037.31
2018-09-05T11:11:53.253Z,102032.97
2018-09-05T11:14:23.108Z,102027.02
2018-09-05T11:16:52.766Z,102029.35
2018-09-05T11:19:22.060Z,102028.88
2018-09-05T11:21:51.819Z,102030.28
2018-09-05T11:24:21.500Z,102022.92
2018-09-05T11:26:50.802Z,102030.78
2018-09-05T11:29:20.315Z,102024.69
2018-09-05T11:31:49.644Z,102029.28
2018-09-05T11:34:18.840Z,102031.78
2018-09-05T11:36:48.465Z,102028.80
2018-09-05T11:39:17.584Z,102028.91
2018-09-05T11:41:46.931Z,102027.14
2018-09-05T11:44:16.263Z,102028.62
2018-09-05T11:46:45.599Z,102025.02
2018-09-05T11:49:14.897Z,102031.83
2018-09-05T11:51:44.301Z,102030.71
2018-09-05T11:54:13.562Z,102032.35
2018-09-05T12:02:28.563Z,102025.64
2018-09-05T12:04:58.229Z,102026.98
2018-09-05T12:10:20.491Z,102028.58
2018-09-05T12:12:49.813Z,102021.86
2018-09-05T12:15:19.085Z,102025.55
2018-09-05T12:17:48.898Z,102027.28
2018-09-05T12:20:18.421Z,102028.72
2018-09-05T12:22:47.742Z,102028.72
2018-09-05T12:25:17.452Z,102028.89
2018-09-05T12:27:46.780Z,102029.87
2018-09-05T12:30:16.053Z,102034.77
2018-09-05T12:32:45.479Z,102032.92
2018-09-05T12:35:14.640Z,102028.77
2018-09-05T12:37:43.977Z,102030.33
2018-09-05T12:40:13.347Z,102026.70
2018-09-05T12:48:27.731Z,102022.16
2018-09-05T12:50:57.213Z,102022.16
2018-09-05T12:53:26.654Z,102017.41
2018-09-05T12:55:56.188Z,102017.70
2018-09-05T12:58:25.454Z,102015.36
2018-09-05T13:00:54.894Z,102011.75
2018-09-05T13:03:24.396Z,102013.39
2018-09-05T13:05:53.730Z,102014.38
2018-09-05T13:08:23.274Z,102004.42
2018-09-05T13:10:52.766Z,102017.22
2018-09-05T13:13:22.129Z,102018.66
2018-09-05T13:15:51.425Z,102019.90
2018-09-05T13:18:21.783Z,102021.05
2018-09-05T13:20:50.933Z,102014.73
2018-09-05T13:23:53.316Z,102011.42
2018-09-05T13:26:22.723Z,102020.20
2018-09-05T13:28:52.077Z,102018.37
2018-09-05T13:31:21.723Z,102016.79
2018-09-05T13:33:51.051Z,102016.73
2018-09-05T13:36:20.400Z,102008.84
2018-09-05T13:38:49.751Z,102011.42
2018-09-05T13:41:19.189Z,102011.52
2018-09-05T13:43:48.402Z,102006.16
2018-09-05T13:46:17.831Z,102008.73
2018-09-05T13:48:47.234Z,102011.42
2018-09-05T13:51:16.631Z,101999.86
2018-09-05T13:53:46.514Z,101998.00
2018-09-05T13:56:15.760Z,102006.05
2018-09-05T13:58:44.924Z,102001.84
2018-09-05T14:01:14.537Z,102000.40
2018-09-05T14:03:43.476Z,102002.03
2018-09-05T14:06:12.859Z,102001.81
2018-09-05T14:08:42.342Z,102001.73
2018-09-05T14:11:11.209Z,101998.53
2018-09-05T14:13:40.372Z,102001.28
2018-09-05T14:16:09.892Z,101999.25
2018-09-05T14:18:39.087Z,101998.53
2018-09-05T14:21:08.356Z,102000.30
2018-09-05T14:23:37.621Z,101999.87
2018-09-05T14:26:06.611Z,101995.66
2018-09-05T14:28:35.652Z,101998.14
2018-09-05T14:31:05.760Z,101995.03
2018-09-05T14:33:35.277Z,101993.78
2018-09-05T14:36:04.596Z,101995.55
2018-09-05T14:38:34.144Z,101983.61
2018-09-05T14:41:03.596Z,101983.61
2018-09-05T14:43:33.057Z,101987.88
2018-09-05T14:46:02.489Z,101987.17
2018-09-05T14:48:31.638Z,101991.20
2018-09-05T14:51:00.919Z,101981.17
2018-09-05T14:53:30.594Z,101984.95
2018-09-05T14:56:00.573Z,101979.73
2018-09-05T14:58:30.041Z,101980.75
2018-09-05T15:00:59.698Z,101976.91
2018-09-05T15:03:29.089Z,101881.77
2018-09-05T15:05:58.491Z,101972.94
2018-09-05T15:08:27.643Z,101975.48
2018-09-05T15:10:56.838Z,101973.41
2018-09-05T15:13:26.285Z,101969.20
2018-09-05T15:15:55.521Z,101971.61
2018-09-05T15:18:24.727Z,101965.85
2018-09-05T15:20:54.205Z,101974.37
2018-09-05T15:23:23.905Z,101962.67
2018-09-05T15:25:53.323Z,101968.38
2018-09-05T15:28:24.251Z,101968.05
2018-09-05T15:30:53.548Z,101965.90
2018-09-05T15:33:23.541Z,101966.72
2018-09-05T15:35:53.437Z,101964.16
2018-09-05T15:38:23.426Z,101965.16
2018-09-05T15:40:52.807Z,101965.19
2018-09-05T15:43:22.685Z,101971.38
2018-09-05T15:45:52.828Z,101967.69
2018-09-05T15:48:22.593Z,101959.63
2018-09-05T15:50:51.919Z,101959.11
2018-09-05T15:53:21.388Z,101964.83
2018-09-05T15:55:50.944Z,101955.90
2018-09-05T15:58:21.681Z,101958.17
2018-09-05T16:00:51.111Z,101964.12
2018-09-05T16:03:21.993Z,101960.70
2018-09-05T16:05:51.468Z,101957.66
2018-09-05T16:08:21.066Z,101963.34
2018-09-05T16:10:50.571Z,101956.28
2018-09-05T16:13:20.169Z,101952.81
2018-09-05T16:15:49.339Z,101959.31
2018-09-05T16:18:18.819Z,101951.36
2018-09-05T16:20:48.200Z,101949.50
2018-09-05T16:23:18.330Z,101949.66
2018-09-05T16:25:48.631Z,101949.30
2018-09-05T16:28:17.920Z,101956.52
2018-09-05T16:30:47.254Z,101949.78
2018-09-05T16:33:17.007Z,101952.83
2018-09-05T16:35:46.388Z,101947.31
2018-09-05T16:38:15.825Z,101946.34
2018-09-05T16:40:45.229Z,101941.74
2018-09-05T16:43:14.719Z,101951.85
2018-09-05T16:45:43.916Z,101945.70
2018-09-05T16:48:13.142Z,101942.31
2018-09-05T16:50:42.525Z,101945.92
2018-09-05T16:53:11.677Z,101951.30
2018-09-05T16:55:41.399Z,101951.94
2018-09-05T16:58:12.604Z,101947.41
2018-09-05T17:00:42.280Z,101951.42
2018-09-05T17:03:12.083Z,101951.50
2018-09-05T17:05:41.473Z,101949.80
2018-09-05T17:08:11.380Z,101954.87
2018-09-05T17:10:40.633Z,101949.28
2018-09-05T17:13:09.784Z,101951.22
2018-09-05T17:15:39.279Z,101950.61
2018-09-05T17:18:09.049Z,101956.42
2018-09-05T17:20:38.554Z,101956.93
2018-09-05T17:23:07.905Z,101955.00
2018-09-05T17:25:37.409Z,101957.67
2018-09-05T17:28:06.784Z,101947.19
2018-09-05T17:30:36.190Z,101951.73
2018-09-05T17:33:05.785Z,101956.27
2018-09-05T17:35:34.793Z,101953.91
2018-09-05T17:38:05.088Z,101954.81
2018-09-05T17:40:34.056Z,101947.21
2018-09-05T17:43:03.119Z,101950.80
2018-09-05T17:45:32.438Z,101947.88
2018-09-05T17:48:01.378Z,101954.40
2018-09-05T17:50:30.776Z,101946.38
2018-09-05T17:52:59.940Z,101951.34
2018-09-05T17:55:28.941Z,101948.22
2018-09-05T17:57:58.168Z,101951.91
2018-09-05T18:00:27.519Z,101948.80
2018-09-05T18:02:56.645Z,101951.93
2018-09-05T18:05:25.941Z,101952.06
2018-09-05T18:07:55.177Z,101951.81
2018-09-05T18:10:24.316Z,101956.83
2018-09-05T18:12:53.572Z,101958.77
2018-09-05T18:15:23.902Z,101957.42
2018-09-05T18:17:53.310Z,101952.97
2018-09-05T18:20:22.769Z,101951.63
2018-09-05T18:22:52.172Z,101953.91
2018-09-05T18:25:21.527Z,101957.05
2018-09-05T18:27:50.947Z,101952.66
2018-09-05T18:30:21.020Z,101958.96
2018-09-05T18:32:50.312Z,101958.38
2018-09-05T18:35:20.121Z,101965.55
2018-09-05T18:37:49.674Z,101961.18
2018-09-05T18:40:19.767Z,101962.12
2018-09-05T18:42:49.347Z,101957.34
2018-09-05T18:45:20.001Z,101958.28
2018-09-05T18:47:49.478Z,101959.28
2018-09-05T18:50:19.201Z,101968.70
2018-09-05T18:52:48.689Z,101963.59
2018-09-05T18:55:18.065Z,101961.81
2018-09-05T18:57:47.415Z,101961.98
2018-09-05T19:00:16.714Z,101960.38
2018-09-05T19:02:46.059Z,101959.50
2018-09-05T19:05:15.861Z,101954.16
2018-09-05T19:07:45.371Z,101956.83
2018-09-05T19:10:14.744Z,101963.05
2018-09-05T19:12:43.961Z,101962.27
2018-09-05T19:15:12.885Z,101966.27
2018-09-05T19:17:42.100Z,101965.34
2018-09-05T19:20:12.044Z,101964.00
2018-09-05T19:22:41.557Z,101960.50
2018-09-05T19:25:10.904Z,101961.31
2018-09-05T19:27:40.173Z,101961.20
2018-09-05T19:30:09.341Z,101962.27
2018-09-05T19:33:41.388Z,101956.05
2018-09-05T19:36:10.623Z,101961.39
2018-09-05T19:38:40.189Z,101961.39
2018-09-05T19:41:09.937Z,101956.05
2018-09-05T19:43:40.190Z,101953.48
2018-09-05T19:46:09.351Z,101952.98
2018-09-05T19:48:38.676Z,101948.05
2018-09-05T19:51:07.903Z,101948.91
2018-09-05T19:53:36.970Z,101944.53
2018-09-05T19:56:06.892Z,101947.20
2018-09-05T19:58:35.885Z,101942.30
2018-09-05T20:01:05.301Z,101939.19
2018-09-05T20:03:34.779Z,101936.59
2018-09-05T20:06:04.058Z,101939.35
2018-09-05T20:08:33.146Z,101934.02
2018-09-05T20:11:03.452Z,101935.91
2018-09-05T20:13:32.718Z,101942.98
2018-09-05T20:16:01.886Z,101933.69
2018-09-05T20:18:31.102Z,101935.03
2018-09-05T20:21:00.680Z,101932.86
2018-09-05T20:23:29.889Z,101934.20
2018-09-05T20:26:02.436Z,101930.29
2018-09-05T20:28:31.561Z,101931.63
2018-09-05T20:31:00.875Z,101922.74
2018-09-05T20:33:30.700Z,101928.64
2018-09-05T20:36:06.668Z,101925.51
2018-09-05T20:38:36.147Z,101924.73
2018-09-05T20:41:05.392Z,101932.80
2018-09-05T20:43:34.755Z,101931.08
2018-09-05T20:46:04.357Z,101929.41
2018-09-05T20:48:34.233Z,101927.64
2018-09-05T20:51:03.899Z,101930.40
2018-09-05T20:53:33.447Z,101916.25
2018-09-05T20:56:02.938Z,101925.20
2018-09-05T20:58:32.260Z,101926.13
2018-09-05T21:01:01.693Z,101924.42
2018-09-05T21:03:31.045Z,101925.80
2018-09-05T21:06:00.154Z,101923.17
2018-09-05T21:08:29.629Z,101927.08
2018-09-05T21:10:59.612Z,101932.03
2018-09-05T21:13:28.599Z,101933.41
2018-09-05T21:15:58.136Z,101932.67
2018-09-05T21:18:27.614Z,101931.40
2018-09-05T21:20:59.291Z,101932.82
2018-09-05T21:23:30.807Z,101930.61
2018-09-05T21:26:00.370Z,101932.42
2018-09-05T21:28:29.423Z,101924.14
2018-09-05T21:30:58.958Z,101918.79
2018-09-05T21:33:28.037Z,101917.47
2018-09-05T21:35:56.998Z,101919.34
2018-09-05T21:38:26.486Z,101918.45
2018-09-05T21:40:55.545Z,101912.73
2018-09-05T21:43:24.605Z,101919.40
2018-09-05T21:45:53.965Z,101915.34
2018-09-05T21:48:23.596Z,101908.28
2018-09-05T21:50:53.014Z,101915.88
2018-09-05T21:53:22.224Z,101918.25
2018-09-05T21:55:51.986Z,101923.58
2018-09-05T21:58:21.407Z,101923.15
2018-09-05T22:00:50.871Z,101916.08
2018-09-05T22:03:19.949Z,101922.36
2018-09-05T22:05:48.924Z,101922.48
2018-09-05T22:08:18.158Z,101920.80
2018-09-05T22:10:47.285Z,101924.84
2018-09-05T22:13:16.225Z,101917.30
2018-09-05T22:15:48.544Z,101917.70
2018-09-05T22:18:18.563Z,101923.52
2018-09-05T22:20:47.998Z,101920.45
2018-09-05T22:23:17.023Z,101928.53
2018-09-05T22:25:46.329Z,101921.91
2018-09-05T22:28:15.762Z,101926.80
2018-09-05T22:30:45.145Z,101914.33
2018-09-05T22:33:14.179Z,101915.66
2018-09-05T22:35:43.607Z,101915.70
2018-09-05T22:38:12.739Z,101899.37
2018-09-05T22:40:47.068Z,101905.27
2018-09-05T22:43:27.235Z,101903.98
2018-09-05T22:46:07.389Z,101905.85
2018-09-05T22:48:50.031Z,101907.27
2018-09-05T22:53:46.787Z,101907.75
2018-09-05T22:57:37.627Z,101904.28
2018-09-05T23:00:21.782Z,101909.17
2018-09-05T23:03:01.927Z,101884.97
2018-09-05T23:07:46.583Z,101903.00
2018-09-05T23:12:32.531Z,101898.31
2018-09-05T23:15:12.493Z,101900.17
2018-09-05T23:20:00.562Z,101893.59
2018-09-05T23:22:40.337Z,101894.93
2018-09-05T23:25:09.390Z,101883.91
2018-09-05T23:27:38.429Z,101886.13
2018-09-05T23:30:07.669Z,101880.77
2018-09-05T23:32:37.390Z,101881.70
2018-09-05T23:35:06.739Z,101880.81
2018-09-05T23:37:35.889Z,101880.84
2018-09-05T23:40:05.132Z,101880.84
2018-09-05T23:42:34.531Z,101875.59
2018-09-05T23:45:03.998Z,101872.49
2018-09-05T23:47:33.445Z,101867.61
2018-09-05T23:50:02.549Z,101869.36
2018-09-05T23:52:31.638Z,101864.99
2018-09-05T23:55:00.998Z,101866.69
2018-09-05T23:57:30.121Z,101866.65
2018-09-05T23:59:59.436Z,101863.55
